sensor_id;sensor_type;location;lat;lon;timestamp;P1;durP1;ratioP1;P2;durP2;ratioP2
26594;SDS011;14238;49.496;8.154;2023-08-17T00:02:10;3.10;;;2.80;;
26594;SDS011;14238;49.496;8.154;2023-08-17T00:04:39;2.80;;;2.47;;
26594;SDS011;14238;49.496;8.154;2023-08-17T00:07:05;2.90;;;2.70;;
26594;SDS011;14238;49.496;8.154;2023-08-17T00:09:31;3.80;;;3.13;;
26594;SDS011;14238;49.496;8.154;2023-08-17T00:11:57;2.67;;;2.47;;
26594;SDS011;14238;49.496;8.154;2023-08-17T00:14:23;4.43;;;2.60;;
26594;SDS011;14238;49.496;8.154;2023-08-17T00:16:49;4.23;;;2.60;;
26594;SDS011;14238;49.496;8.154;2023-08-17T00:19:15;4.57;;;2.80;;
26594;SDS011;14238;49.496;8.154;2023-08-17T00:21:41;3.73;;;2.87;;
26594;SDS011;14238;49.496;8.154;2023-08-17T00:24:06;4.03;;;2.17;;
26594;SDS011;14238;49.496;8.154;2023-08-17T00:26:32;3.00;;;2.53;;
26594;SDS011;14238;49.496;8.154;2023-08-17T00:28:58;3.50;;;2.80;;
26594;SDS011;14238;49.496;8.154;2023-08-17T00:31:24;3.10;;;2.90;;
26594;SDS011;14238;49.496;8.154;2023-08-17T00:33:49;2.90;;;2.70;;
26594;SDS011;14238;49.496;8.154;2023-08-17T00:36:14;3.40;;;3.10;;
26594;SDS011;14238;49.496;8.154;2023-08-17T00:38:40;4.67;;;2.60;;
26594;SDS011;14238;49.496;8.154;2023-08-17T00:41:06;4.13;;;2.93;;
26594;SDS011;14238;49.496;8.154;2023-08-17T00:43:31;4.07;;;3.20;;
26594;SDS011;14238;49.496;8.154;2023-08-17T00:45:57;3.53;;;3.33;;
26594;SDS011;14238;49.496;8.154;2023-08-17T00:48:23;3.93;;;2.63;;
26594;SDS011;14238;49.496;8.154;2023-08-17T00:50:49;3.07;;;2.87;;
26594;SDS011;14238;49.496;8.154;2023-08-17T00:53:17;3.70;;;2.67;;
26594;SDS011;14238;49.496;8.154;2023-08-17T00:55:44;4.90;;;2.63;;
26594;SDS011;14238;49.496;8.154;2023-08-17T00:58:10;3.30;;;3.00;;
26594;SDS011;14238;49.496;8.154;2023-08-17T01:00:36;3.23;;;2.97;;
26594;SDS011;14238;49.496;8.154;2023-08-17T01:03:01;3.23;;;2.93;;
26594;SDS011;14238;49.496;8.154;2023-08-17T01:05:27;3.17;;;2.67;;
26594;SDS011;14238;49.496;8.154;2023-08-17T01:07:54;3.30;;;3.00;;
26594;SDS011;14238;49.496;8.154;2023-08-17T01:10:20;3.37;;;2.70;;
26594;SDS011;14238;49.496;8.154;2023-08-17T01:15:27;5.77;;;3.20;;
26594;SDS011;14238;49.496;8.154;2023-08-17T01:18:04;4.03;;;3.33;;
26594;SDS011;14238;49.496;8.154;2023-08-17T01:20:52;4.50;;;3.40;;
26594;SDS011;14238;49.496;8.154;2023-08-17T01:23:18;3.80;;;2.63;;
26594;SDS011;14238;49.496;8.154;2023-08-17T01:25:44;3.80;;;2.83;;
26594;SDS011;14238;49.496;8.154;2023-08-17T01:28:10;5.10;;;3.40;;
26594;SDS011;14238;49.496;8.154;2023-08-17T01:33:21;3.73;;;2.90;;
26594;SDS011;14238;49.496;8.154;2023-08-17T01:35:56;4.10;;;2.83;;
26594;SDS011;14238;49.496;8.154;2023-08-17T01:38:30;3.20;;;2.90;;
26594;SDS011;14238;49.496;8.154;2023-08-17T01:40:57;5.33;;;3.43;;
26594;SDS011;14238;49.496;8.154;2023-08-17T01:43:25;3.00;;;2.80;;
26594;SDS011;14238;49.496;8.154;2023-08-17T01:45:53;3.37;;;2.80;;
26594;SDS011;14238;49.496;8.154;2023-08-17T01:48:19;2.83;;;2.43;;
26594;SDS011;14238;49.496;8.154;2023-08-17T01:50:45;2.40;;;2.30;;
26594;SDS011;14238;49.496;8.154;2023-08-17T01:53:11;3.13;;;2.83;;
26594;SDS011;14238;49.496;8.154;2023-08-17T01:55:37;3.77;;;2.90;;
26594;SDS011;14238;49.496;8.154;2023-08-17T01:58:02;3.33;;;3.10;;
26594;SDS011;14238;49.496;8.154;2023-08-17T02:00:28;3.33;;;2.67;;
26594;SDS011;14238;49.496;8.154;2023-08-17T02:02:53;4.30;;;2.73;;
26594;SDS011;14238;49.496;8.154;2023-08-17T02:05:19;3.33;;;3.07;;
26594;SDS011;14238;49.496;8.154;2023-08-17T02:07:45;3.10;;;2.80;;
26594;SDS011;14238;49.496;8.154;2023-08-17T02:10:10;2.90;;;2.70;;
26594;SDS011;14238;49.496;8.154;2023-08-17T02:12:36;3.00;;;2.67;;
26594;SDS011;14238;49.496;8.154;2023-08-17T02:15:01;3.23;;;2.93;;
26594;SDS011;14238;49.496;8.154;2023-08-17T02:17:27;3.40;;;3.20;;
26594;SDS011;14238;49.496;8.154;2023-08-17T02:19:52;5.00;;;3.57;;
26594;SDS011;14238;49.496;8.154;2023-08-17T02:22:18;2.77;;;2.67;;
26594;SDS011;14238;49.496;8.154;2023-08-17T02:24:43;3.50;;;3.20;;
26594;SDS011;14238;49.496;8.154;2023-08-17T02:27:10;4.07;;;2.60;;
26594;SDS011;14238;49.496;8.154;2023-08-17T02:29:36;2.87;;;2.67;;
26594;SDS011;14238;49.496;8.154;2023-08-17T02:32:01;5.20;;;3.27;;
26594;SDS011;14238;49.496;8.154;2023-08-17T02:34:27;4.87;;;2.90;;
26594;SDS011;14238;49.496;8.154;2023-08-17T02:36:52;3.97;;;2.60;;
26594;SDS011;14238;49.496;8.154;2023-08-17T02:39:18;3.17;;;2.87;;
26594;SDS011;14238;49.496;8.154;2023-08-17T02:41:43;2.83;;;2.73;;
26594;SDS011;14238;49.496;8.154;2023-08-17T02:44:09;3.43;;;3.23;;
26594;SDS011;14238;49.496;8.154;2023-08-17T02:46:35;3.20;;;2.60;;
26594;SDS011;14238;49.496;8.154;2023-08-17T02:49:01;4.93;;;3.10;;
26594;SDS011;14238;49.496;8.154;2023-08-17T02:51:26;3.13;;;2.50;;
26594;SDS011;14238;49.496;8.154;2023-08-17T02:53:52;4.20;;;2.70;;
26594;SDS011;14238;49.496;8.154;2023-08-17T02:56:17;3.37;;;3.03;;
26594;SDS011;14238;49.496;8.154;2023-08-17T02:58:43;4.10;;;3.10;;
26594;SDS011;14238;49.496;8.154;2023-08-17T03:01:08;3.77;;;2.70;;
26594;SDS011;14238;49.496;8.154;2023-08-17T03:03:36;3.10;;;2.90;;
26594;SDS011;14238;49.496;8.154;2023-08-17T03:06:02;3.00;;;2.80;;
26594;SDS011;14238;49.496;8.154;2023-08-17T03:08:28;5.27;;;2.63;;
26594;SDS011;14238;49.496;8.154;2023-08-17T03:10:53;3.00;;;2.70;;
26594;SDS011;14238;49.496;8.154;2023-08-17T03:13:19;3.17;;;2.87;;
26594;SDS011;14238;49.496;8.154;2023-08-17T03:15:44;9.93;;;2.90;;
26594;SDS011;14238;49.496;8.154;2023-08-17T03:18:10;2.30;;;2.13;;
26594;SDS011;14238;49.496;8.154;2023-08-17T03:20:35;3.43;;;2.90;;
26594;SDS011;14238;49.496;8.154;2023-08-17T03:23:01;4.77;;;2.60;;
26594;SDS011;14238;49.496;8.154;2023-08-17T03:25:27;2.70;;;2.50;;
26594;SDS011;14238;49.496;8.154;2023-08-17T03:27:52;4.83;;;2.77;;
26594;SDS011;14238;49.496;8.154;2023-08-17T03:30:18;3.33;;;2.87;;
26594;SDS011;14238;49.496;8.154;2023-08-17T03:32:44;4.70;;;3.40;;
26594;SDS011;14238;49.496;8.154;2023-08-17T03:35:09;2.70;;;2.50;;
26594;SDS011;14238;49.496;8.154;2023-08-17T03:37:35;4.17;;;3.10;;
26594;SDS011;14238;49.496;8.154;2023-08-17T03:40:00;2.67;;;2.57;;
26594;SDS011;14238;49.496;8.154;2023-08-17T03:42:26;6.90;;;2.80;;
26594;SDS011;14238;49.496;8.154;2023-08-17T03:44:52;4.90;;;2.73;;
26594;SDS011;14238;49.496;8.154;2023-08-17T03:47:17;2.67;;;2.47;;
26594;SDS011;14238;49.496;8.154;2023-08-17T03:49:44;3.93;;;3.53;;
26594;SDS011;14238;49.496;8.154;2023-08-17T03:52:09;5.10;;;3.17;;
26594;SDS011;14238;49.496;8.154;2023-08-17T03:54:35;2.83;;;2.63;;
26594;SDS011;14238;49.496;8.154;2023-08-17T03:57:01;4.13;;;3.43;;
26594;SDS011;14238;49.496;8.154;2023-08-17T03:59:27;4.07;;;3.40;;
26594;SDS011;14238;49.496;8.154;2023-08-17T04:01:52;3.20;;;2.90;;
26594;SDS011;14238;49.496;8.154;2023-08-17T04:04:18;3.00;;;2.80;;
26594;SDS011;14238;49.496;8.154;2023-08-17T04:06:44;3.40;;;3.10;;
26594;SDS011;14238;49.496;8.154;2023-08-17T04:09:09;2.90;;;2.70;;
26594;SDS011;14238;49.496;8.154;2023-08-17T04:11:35;3.53;;;2.90;;
26594;SDS011;14238;49.496;8.154;2023-08-17T04:14:03;3.27;;;3.07;;
26594;SDS011;14238;49.496;8.154;2023-08-17T04:16:29;4.77;;;3.50;;
26594;SDS011;14238;49.496;8.154;2023-08-17T04:18:55;3.53;;;3.30;;
26594;SDS011;14238;49.496;8.154;2023-08-17T04:21:20;5.63;;;3.37;;
26594;SDS011;14238;49.496;8.154;2023-08-17T04:23:46;3.23;;;2.90;;
26594;SDS011;14238;49.496;8.154;2023-08-17T04:26:12;4.27;;;3.97;;
26594;SDS011;14238;49.496;8.154;2023-08-17T04:28:37;3.90;;;3.60;;
26594;SDS011;14238;49.496;8.154;2023-08-17T04:31:03;3.40;;;2.93;;
26594;SDS011;14238;49.496;8.154;2023-08-17T04:33:29;4.07;;;3.77;;
26594;SDS011;14238;49.496;8.154;2023-08-17T04:35:54;4.20;;;3.90;;
26594;SDS011;14238;49.496;8.154;2023-08-17T04:38:20;4.27;;;3.97;;
26594;SDS011;14238;49.496;8.154;2023-08-17T04:40:46;4.00;;;3.70;;
26594;SDS011;14238;49.496;8.154;2023-08-17T04:43:12;4.27;;;3.97;;
26594;SDS011;14238;49.496;8.154;2023-08-17T04:45:38;4.77;;;4.40;;
26594;SDS011;14238;49.496;8.154;2023-08-17T04:48:03;4.40;;;4.10;;
26594;SDS011;14238;49.496;8.154;2023-08-17T04:50:30;5.10;;;4.60;;
26594;SDS011;14238;49.496;8.154;2023-08-17T04:52:56;4.63;;;4.23;;
26594;SDS011;14238;49.496;8.154;2023-08-17T04:55:21;4.70;;;4.30;;
26594;SDS011;14238;49.496;8.154;2023-08-17T04:57:47;5.73;;;5.23;;
26594;SDS011;14238;49.496;8.154;2023-08-17T05:00:13;4.73;;;4.27;;
26594;SDS011;14238;49.496;8.154;2023-08-17T05:02:40;4.90;;;4.50;;
26594;SDS011;14238;49.496;8.154;2023-08-17T05:05:06;5.03;;;4.53;;
26594;SDS011;14238;49.496;8.154;2023-08-17T05:07:33;5.10;;;4.63;;
26594;SDS011;14238;49.496;8.154;2023-08-17T05:09:59;5.17;;;4.77;;
26594;SDS011;14238;49.496;8.154;2023-08-17T05:12:25;4.50;;;4.20;;
26594;SDS011;14238;49.496;8.154;2023-08-17T05:14:51;3.93;;;3.63;;
26594;SDS011;14238;49.496;8.154;2023-08-17T05:17:16;4.07;;;3.77;;
26594;SDS011;14238;49.496;8.154;2023-08-17T05:19:42;4.60;;;4.00;;
26594;SDS011;14238;49.496;8.154;2023-08-17T05:22:11;3.90;;;3.50;;
26594;SDS011;14238;49.496;8.154;2023-08-17T05:24:38;3.63;;;3.43;;
26594;SDS011;14238;49.496;8.154;2023-08-17T05:27:05;3.70;;;3.50;;
26594;SDS011;14238;49.496;8.154;2023-08-17T05:29:30;4.10;;;3.80;;
26594;SDS011;14238;49.496;8.154;2023-08-17T05:31:58;3.67;;;3.20;;
26594;SDS011;14238;49.496;8.154;2023-08-17T05:34:24;3.90;;;3.60;;
26594;SDS011;14238;49.496;8.154;2023-08-17T05:36:50;3.07;;;2.87;;
26594;SDS011;14238;49.496;8.154;2023-08-17T05:39:15;4.97;;;4.40;;
26594;SDS011;14238;49.496;8.154;2023-08-17T05:41:41;4.23;;;3.90;;
26594;SDS011;14238;49.496;8.154;2023-08-17T05:44:06;4.07;;;3.40;;
26594;SDS011;14238;49.496;8.154;2023-08-17T05:46:35;4.03;;;3.63;;
26594;SDS011;14238;49.496;8.154;2023-08-17T05:49:01;3.80;;;3.50;;
26594;SDS011;14238;49.496;8.154;2023-08-17T05:51:27;3.87;;;3.57;;
26594;SDS011;14238;49.496;8.154;2023-08-17T05:53:53;4.33;;;3.93;;
26594;SDS011;14238;49.496;8.154;2023-08-17T05:56:19;5.10;;;4.70;;
26594;SDS011;14238;49.496;8.154;2023-08-17T05:58:44;4.63;;;4.33;;
26594;SDS011;14238;49.496;8.154;2023-08-17T06:01:10;6.97;;;6.27;;
26594;SDS011;14238;49.496;8.154;2023-08-17T06:03:36;8.10;;;7.30;;
26594;SDS011;14238;49.496;8.154;2023-08-17T06:06:02;8.60;;;7.80;;
26594;SDS011;14238;49.496;8.154;2023-08-17T06:08:28;8.57;;;7.77;;
26594;SDS011;14238;49.496;8.154;2023-08-17T06:10:55;9.60;;;8.80;;
26594;SDS011;14238;49.496;8.154;2023-08-17T06:13:21;9.77;;;8.90;;
26594;SDS011;14238;49.496;8.154;2023-08-17T06:15:46;10.80;;;9.80;;
26594;SDS011;14238;49.496;8.154;2023-08-17T06:18:12;13.03;;;11.63;;
26594;SDS011;14238;49.496;8.154;2023-08-17T06:20:38;12.57;;;10.97;;
26594;SDS011;14238;49.496;8.154;2023-08-17T06:23:03;11.00;;;9.90;;
26594;SDS011;14238;49.496;8.154;2023-08-17T06:25:29;11.70;;;10.50;;
26594;SDS011;14238;49.496;8.154;2023-08-17T06:27:55;12.67;;;11.33;;
26594;SDS011;14238;49.496;8.154;2023-08-17T06:30:21;12.00;;;10.90;;
26594;SDS011;14238;49.496;8.154;2023-08-17T06:32:46;12.50;;;11.30;;
26594;SDS011;14238;49.496;8.154;2023-08-17T06:35:12;11.83;;;10.73;;
26594;SDS011;14238;49.496;8.154;2023-08-17T06:37:38;11.30;;;10.33;;
26594;SDS011;14238;49.496;8.154;2023-08-17T06:40:04;12.17;;;11.07;;
26594;SDS011;14238;49.496;8.154;2023-08-17T06:42:34;12.60;;;11.30;;
26594;SDS011;14238;49.496;8.154;2023-08-17T06:44:59;11.60;;;10.50;;
26594;SDS011;14238;49.496;8.154;2023-08-17T06:47:25;10.67;;;9.67;;
26594;SDS011;14238;49.496;8.154;2023-08-17T06:49:51;10.03;;;9.13;;
26594;SDS011;14238;49.496;8.154;2023-08-17T06:52:16;10.20;;;9.00;;
26594;SDS011;14238;49.496;8.154;2023-08-17T06:54:42;10.77;;;9.67;;
26594;SDS011;14238;49.496;8.154;2023-08-17T06:57:07;10.60;;;9.60;;
26594;SDS011;14238;49.496;8.154;2023-08-17T06:59:33;9.80;;;8.90;;
26594;SDS011;14238;49.496;8.154;2023-08-17T07:01:59;11.73;;;10.57;;
26594;SDS011;14238;49.496;8.154;2023-08-17T07:04:25;10.80;;;9.80;;
26594;SDS011;14238;49.496;8.154;2023-08-17T07:06:50;10.17;;;9.13;;
26594;SDS011;14238;49.496;8.154;2023-08-17T07:09:16;12.67;;;11.37;;
26594;SDS011;14238;49.496;8.154;2023-08-17T07:11:42;12.97;;;10.70;;
26594;SDS011;14238;49.496;8.154;2023-08-17T07:14:07;9.97;;;9.07;;
26594;SDS011;14238;49.496;8.154;2023-08-17T07:16:33;9.73;;;8.83;;
26594;SDS011;14238;49.496;8.154;2023-08-17T07:18:59;9.87;;;9.07;;
26594;SDS011;14238;49.496;8.154;2023-08-17T07:21:24;9.70;;;8.90;;
26594;SDS011;14238;49.496;8.154;2023-08-17T07:23:50;11.00;;;10.03;;
26594;SDS011;14238;49.496;8.154;2023-08-17T07:26:16;10.40;;;9.40;;
26594;SDS011;14238;49.496;8.154;2023-08-17T07:28:45;9.87;;;9.00;;
26594;SDS011;14238;49.496;8.154;2023-08-17T07:31:12;9.97;;;9.07;;
26594;SDS011;14238;49.496;8.154;2023-08-17T07:33:38;9.63;;;8.73;;
26594;SDS011;14238;49.496;8.154;2023-08-17T07:36:04;9.50;;;8.67;;
26594;SDS011;14238;49.496;8.154;2023-08-17T07:38:30;10.83;;;9.93;;
26594;SDS011;14238;49.496;8.154;2023-08-17T07:40:55;9.90;;;9.00;;
26594;SDS011;14238;49.496;8.154;2023-08-17T07:43:21;10.00;;;9.10;;
26594;SDS011;14238;49.496;8.154;2023-08-17T07:45:53;9.73;;;8.93;;
26594;SDS011;14238;49.496;8.154;2023-08-17T07:48:21;8.90;;;8.20;;
26594;SDS011;14238;49.496;8.154;2023-08-17T07:50:48;9.27;;;8.47;;
26594;SDS011;14238;49.496;8.154;2023-08-17T07:53:15;10.60;;;9.60;;
26594;SDS011;14238;49.496;8.154;2023-08-17T07:55:40;8.97;;;8.17;;
26594;SDS011;14238;49.496;8.154;2023-08-17T07:58:06;8.10;;;7.50;;
26594;SDS011;14238;49.496;8.154;2023-08-17T08:00:31;10.33;;;9.40;;
26594;SDS011;14238;49.496;8.154;2023-08-17T08:02:57;7.93;;;7.33;;
26594;SDS011;14238;49.496;8.154;2023-08-17T08:05:23;10.27;;;8.97;;
26594;SDS011;14238;49.496;8.154;2023-08-17T08:07:48;10.13;;;9.43;;
26594;SDS011;14238;49.496;8.154;2023-08-17T08:10:14;9.80;;;9.00;;
26594;SDS011;14238;49.496;8.154;2023-08-17T08:12:39;8.93;;;8.30;;
26594;SDS011;14238;49.496;8.154;2023-08-17T08:15:05;9.83;;;9.00;;
26594;SDS011;14238;49.496;8.154;2023-08-17T08:17:31;8.33;;;7.73;;
26594;SDS011;14238;49.496;8.154;2023-08-17T08:19:56;8.40;;;7.70;;
26594;SDS011;14238;49.496;8.154;2023-08-17T08:22:23;9.50;;;8.80;;
26594;SDS011;14238;49.496;8.154;2023-08-17T08:24:48;9.07;;;8.27;;
26594;SDS011;14238;49.496;8.154;2023-08-17T08:27:14;7.80;;;7.30;;
26594;SDS011;14238;49.496;8.154;2023-08-17T08:29:40;9.43;;;8.73;;
26594;SDS011;14238;49.496;8.154;2023-08-17T08:32:06;8.97;;;8.33;;
26594;SDS011;14238;49.496;8.154;2023-08-17T08:34:31;8.70;;;8.10;;
26594;SDS011;14238;49.496;8.154;2023-08-17T08:36:57;8.23;;;7.47;;
26594;SDS011;14238;49.496;8.154;2023-08-17T08:39:25;7.60;;;7.10;;
26594;SDS011;14238;49.496;8.154;2023-08-17T08:41:50;6.70;;;6.30;;
26594;SDS011;14238;49.496;8.154;2023-08-17T08:44:16;6.30;;;5.83;;
26594;SDS011;14238;49.496;8.154;2023-08-17T08:46:42;7.07;;;6.57;;
26594;SDS011;14238;49.496;8.154;2023-08-17T08:49:10;6.90;;;6.30;;
26594;SDS011;14238;49.496;8.154;2023-08-17T08:51:37;5.90;;;5.50;;
26594;SDS011;14238;49.496;8.154;2023-08-17T08:54:10;6.10;;;5.70;;
26594;SDS011;14238;49.496;8.154;2023-08-17T08:56:38;6.93;;;6.43;;
26594;SDS011;14238;49.496;8.154;2023-08-17T08:59:06;8.07;;;7.47;;
26594;SDS011;14238;49.496;8.154;2023-08-17T09:01:33;8.20;;;7.70;;
26594;SDS011;14238;49.496;8.154;2023-08-17T09:04:00;7.60;;;7.00;;
26594;SDS011;14238;49.496;8.154;2023-08-17T09:06:26;7.43;;;6.93;;
26594;SDS011;14238;49.496;8.154;2023-08-17T09:08:52;7.17;;;6.67;;
26594;SDS011;14238;49.496;8.154;2023-08-17T09:11:18;6.97;;;6.47;;
26594;SDS011;14238;49.496;8.154;2023-08-17T09:13:44;5.70;;;5.40;;
26594;SDS011;14238;49.496;8.154;2023-08-17T09:16:09;6.53;;;6.03;;
26594;SDS011;14238;49.496;8.154;2023-08-17T09:18:35;7.30;;;6.60;;
26594;SDS011;14238;49.496;8.154;2023-08-17T09:21:00;7.53;;;7.07;;
26594;SDS011;14238;49.496;8.154;2023-08-17T09:23:26;7.03;;;6.53;;
26594;SDS011;14238;49.496;8.154;2023-08-17T09:25:52;7.90;;;7.27;;
26594;SDS011;14238;49.496;8.154;2023-08-17T09:28:23;6.63;;;6.23;;
26594;SDS011;14238;49.496;8.154;2023-08-17T09:30:56;6.70;;;6.17;;
26594;SDS011;14238;49.496;8.154;2023-08-17T09:33:23;5.97;;;5.57;;
26594;SDS011;14238;49.496;8.154;2023-08-17T09:35:51;6.10;;;5.67;;
26594;SDS011;14238;49.496;8.154;2023-08-17T09:38:18;7.00;;;6.47;;
26594;SDS011;14238;49.496;8.154;2023-08-17T09:40:45;6.40;;;5.87;;
26594;SDS011;14238;49.496;8.154;2023-08-17T09:43:11;6.87;;;6.37;;
26594;SDS011;14238;49.496;8.154;2023-08-17T09:45:38;7.37;;;6.97;;
26594;SDS011;14238;49.496;8.154;2023-08-17T09:48:05;8.40;;;7.70;;
26594;SDS011;14238;49.496;8.154;2023-08-17T09:50:32;10.07;;;9.47;;
26594;SDS011;14238;49.496;8.154;2023-08-17T09:52:58;9.80;;;9.07;;
26594;SDS011;14238;49.496;8.154;2023-08-17T09:55:24;9.23;;;8.40;;
26594;SDS011;14238;49.496;8.154;2023-08-17T09:57:50;8.30;;;7.73;;
26594;SDS011;14238;49.496;8.154;2023-08-17T10:00:17;9.27;;;8.67;;
26594;SDS011;14238;49.496;8.154;2023-08-17T10:02:44;7.47;;;6.87;;
26594;SDS011;14238;49.496;8.154;2023-08-17T10:05:11;7.80;;;7.10;;
26594;SDS011;14238;49.496;8.154;2023-08-17T10:07:38;6.60;;;6.10;;
26594;SDS011;14238;49.496;8.154;2023-08-17T10:10:07;6.63;;;6.20;;
26594;SDS011;14238;49.496;8.154;2023-08-17T10:12:45;7.70;;;7.00;;
26594;SDS011;14238;49.496;8.154;2023-08-17T10:15:20;6.87;;;6.37;;
26594;SDS011;14238;49.496;8.154;2023-08-17T10:17:54;6.50;;;6.10;;
26594;SDS011;14238;49.496;8.154;2023-08-17T10:20:25;6.77;;;6.30;;
26594;SDS011;14238;49.496;8.154;2023-08-17T10:25:44;5.67;;;5.17;;
26594;SDS011;14238;49.496;8.154;2023-08-17T10:28:10;6.40;;;6.00;;
26594;SDS011;14238;49.496;8.154;2023-08-17T10:30:37;6.27;;;5.87;;
26594;SDS011;14238;49.496;8.154;2023-08-17T10:33:04;6.90;;;6.40;;
26594;SDS011;14238;49.496;8.154;2023-08-17T10:35:31;6.50;;;6.10;;
26594;SDS011;14238;49.496;8.154;2023-08-17T10:37:58;5.77;;;5.23;;
26594;SDS011;14238;49.496;8.154;2023-08-17T10:40:28;5.20;;;4.90;;
26594;SDS011;14238;49.496;8.154;2023-08-17T10:42:59;5.23;;;4.90;;
26594;SDS011;14238;49.496;8.154;2023-08-17T10:47:59;6.07;;;5.57;;
26594;SDS011;14238;49.496;8.154;2023-08-17T10:50:58;4.97;;;4.60;;
26594;SDS011;14238;49.496;8.154;2023-08-17T10:53:25;4.40;;;4.10;;
26594;SDS011;14238;49.496;8.154;2023-08-17T10:55:50;5.10;;;4.80;;
26594;SDS011;14238;49.496;8.154;2023-08-17T10:58:22;4.10;;;3.90;;
26594;SDS011;14238;49.496;8.154;2023-08-17T11:00:48;4.67;;;4.20;;
26594;SDS011;14238;49.496;8.154;2023-08-17T11:03:20;6.23;;;4.27;;
26594;SDS011;14238;49.496;8.154;2023-08-17T11:05:52;4.70;;;4.40;;
26594;SDS011;14238;49.496;8.154;2023-08-17T11:13:31;4.27;;;4.07;;
26594;SDS011;14238;49.496;8.154;2023-08-17T11:16:02;4.57;;;4.37;;
26594;SDS011;14238;49.496;8.154;2023-08-17T11:18:29;4.17;;;3.97;;
26594;SDS011;14238;49.496;8.154;2023-08-17T11:20:55;4.50;;;4.20;;
26594;SDS011;14238;49.496;8.154;2023-08-17T11:23:22;4.60;;;4.30;;
26594;SDS011;14238;49.496;8.154;2023-08-17T11:25:48;4.87;;;4.57;;
26594;SDS011;14238;49.496;8.154;2023-08-17T11:28:16;4.80;;;4.50;;
26594;SDS011;14238;49.496;8.154;2023-08-17T11:30:41;5.80;;;3.67;;
26594;SDS011;14238;49.496;8.154;2023-08-17T11:33:08;4.20;;;3.90;;
26594;SDS011;14238;49.496;8.154;2023-08-17T11:35:34;3.63;;;3.43;;
26594;SDS011;14238;49.496;8.154;2023-08-17T11:38:01;3.67;;;3.47;;
26594;SDS011;14238;49.496;8.154;2023-08-17T11:40:28;4.27;;;3.97;;
26594;SDS011;14238;49.496;8.154;2023-08-17T11:42:54;3.97;;;3.77;;
26594;SDS011;14238;49.496;8.154;2023-08-17T11:45:19;4.00;;;3.70;;
26594;SDS011;14238;49.496;8.154;2023-08-17T11:47:46;4.03;;;3.73;;
26594;SDS011;14238;49.496;8.154;2023-08-17T11:50:14;4.70;;;4.30;;
26594;SDS011;14238;49.496;8.154;2023-08-17T11:52:40;4.10;;;3.83;;
26594;SDS011;14238;49.496;8.154;2023-08-17T11:55:06;4.10;;;3.80;;
26594;SDS011;14238;49.496;8.154;2023-08-17T11:57:33;4.40;;;4.20;;
26594;SDS011;14238;49.496;8.154;2023-08-17T12:00:02;4.77;;;4.47;;
26594;SDS011;14238;49.496;8.154;2023-08-17T12:02:31;5.40;;;4.70;;
26594;SDS011;14238;49.496;8.154;2023-08-17T12:04:58;4.90;;;4.50;;
26594;SDS011;14238;49.496;8.154;2023-08-17T12:07:28;4.67;;;4.40;;
26594;SDS011;14238;49.496;8.154;2023-08-17T12:09:54;7.57;;;4.73;;
26594;SDS011;14238;49.496;8.154;2023-08-17T12:12:21;4.93;;;4.50;;
26594;SDS011;14238;49.496;8.154;2023-08-17T12:14:50;5.00;;;4.80;;
26594;SDS011;14238;49.496;8.154;2023-08-17T12:17:19;5.40;;;5.10;;
26594;SDS011;14238;49.496;8.154;2023-08-17T12:19:49;5.67;;;5.37;;
26594;SDS011;14238;49.496;8.154;2023-08-17T12:22:15;5.17;;;4.87;;
26594;SDS011;14238;49.496;8.154;2023-08-17T12:24:41;5.73;;;5.33;;
26594;SDS011;14238;49.496;8.154;2023-08-17T12:27:08;5.70;;;5.40;;
26594;SDS011;14238;49.496;8.154;2023-08-17T12:29:45;5.93;;;5.40;;
26594;SDS011;14238;49.496;8.154;2023-08-17T12:32:18;5.87;;;5.37;;
26594;SDS011;14238;49.496;8.154;2023-08-17T12:34:45;7.70;;;7.00;;
26594;SDS011;14238;49.496;8.154;2023-08-17T12:37:11;7.70;;;6.90;;
26594;SDS011;14238;49.496;8.154;2023-08-17T12:39:43;7.37;;;6.67;;
26594;SDS011;14238;49.496;8.154;2023-08-17T12:42:08;6.63;;;6.03;;
26594;SDS011;14238;49.496;8.154;2023-08-17T12:44:34;7.53;;;6.43;;
26594;SDS011;14238;49.496;8.154;2023-08-17T12:46:59;5.90;;;5.50;;
26594;SDS011;14238;49.496;8.154;2023-08-17T12:49:25;5.60;;;5.30;;
26594;SDS011;14238;49.496;8.154;2023-08-17T12:51:51;7.50;;;5.90;;
26594;SDS011;14238;49.496;8.154;2023-08-17T12:54:17;6.13;;;5.73;;
26594;SDS011;14238;49.496;8.154;2023-08-17T12:56:43;5.97;;;5.67;;
26594;SDS011;14238;49.496;8.154;2023-08-17T12:59:09;5.77;;;5.20;;
26594;SDS011;14238;49.496;8.154;2023-08-17T13:01:34;5.10;;;4.80;;
26594;SDS011;14238;49.496;8.154;2023-08-17T13:04:00;5.60;;;5.30;;
26594;SDS011;14238;49.496;8.154;2023-08-17T13:06:25;6.00;;;5.50;;
26594;SDS011;14238;49.496;8.154;2023-08-17T13:08:51;5.03;;;4.73;;
26594;SDS011;14238;49.496;8.154;2023-08-17T13:11:17;5.37;;;4.87;;
26594;SDS011;14238;49.496;8.154;2023-08-17T13:13:42;5.50;;;5.20;;
26594;SDS011;14238;49.496;8.154;2023-08-17T13:16:08;5.97;;;5.50;;
26594;SDS011;14238;49.496;8.154;2023-08-17T13:18:34;5.57;;;5.13;;
26594;SDS011;14238;49.496;8.154;2023-08-17T13:20:59;4.90;;;4.60;;
26594;SDS011;14238;49.496;8.154;2023-08-17T13:23:25;5.40;;;4.50;;
26594;SDS011;14238;49.496;8.154;2023-08-17T13:25:50;4.70;;;4.40;;
26594;SDS011;14238;49.496;8.154;2023-08-17T13:28:16;5.67;;;5.00;;
26594;SDS011;14238;49.496;8.154;2023-08-17T13:30:42;4.43;;;4.03;;
26594;SDS011;14238;49.496;8.154;2023-08-17T13:33:07;4.80;;;4.40;;
26594;SDS011;14238;49.496;8.154;2023-08-17T13:35:33;4.17;;;3.77;;
26594;SDS011;14238;49.496;8.154;2023-08-17T13:37:59;4.60;;;4.30;;
26594;SDS011;14238;49.496;8.154;2023-08-17T13:40:24;3.83;;;3.53;;
26594;SDS011;14238;49.496;8.154;2023-08-17T13:42:50;3.70;;;3.50;;
26594;SDS011;14238;49.496;8.154;2023-08-17T13:45:16;4.10;;;3.80;;
26594;SDS011;14238;49.496;8.154;2023-08-17T13:47:43;4.13;;;3.87;;
26594;SDS011;14238;49.496;8.154;2023-08-17T13:50:08;4.20;;;4.00;;
26594;SDS011;14238;49.496;8.154;2023-08-17T13:52:34;4.50;;;4.20;;
26594;SDS011;14238;49.496;8.154;2023-08-17T13:55:00;4.37;;;4.13;;
26594;SDS011;14238;49.496;8.154;2023-08-17T13:57:25;5.20;;;4.80;;
26594;SDS011;14238;49.496;8.154;2023-08-17T13:59:51;4.07;;;3.87;;
26594;SDS011;14238;49.496;8.154;2023-08-17T14:02:17;4.20;;;3.90;;
26594;SDS011;14238;49.496;8.154;2023-08-17T14:04:43;4.97;;;4.67;;
26594;SDS011;14238;49.496;8.154;2023-08-17T14:07:09;5.27;;;4.97;;
26594;SDS011;14238;49.496;8.154;2023-08-17T14:09:34;5.27;;;4.90;;
26594;SDS011;14238;49.496;8.154;2023-08-17T14:12:00;5.53;;;5.17;;
26594;SDS011;14238;49.496;8.154;2023-08-17T14:14:26;5.13;;;4.83;;
26594;SDS011;14238;49.496;8.154;2023-08-17T14:16:52;6.03;;;5.10;;
26594;SDS011;14238;49.496;8.154;2023-08-17T14:19:17;5.30;;;4.70;;
26594;SDS011;14238;49.496;8.154;2023-08-17T14:21:43;5.43;;;5.03;;
26594;SDS011;14238;49.496;8.154;2023-08-17T14:24:08;4.63;;;4.33;;
26594;SDS011;14238;49.496;8.154;2023-08-17T14:26:34;4.73;;;4.40;;
26594;SDS011;14238;49.496;8.154;2023-08-17T14:29:00;4.90;;;4.60;;
26594;SDS011;14238;49.496;8.154;2023-08-17T14:31:25;4.47;;;4.20;;
26594;SDS011;14238;49.496;8.154;2023-08-17T14:33:51;5.10;;;4.60;;
26594;SDS011;14238;49.496;8.154;2023-08-17T14:36:18;5.37;;;5.07;;
26594;SDS011;14238;49.496;8.154;2023-08-17T14:38:43;5.47;;;5.17;;
26594;SDS011;14238;49.496;8.154;2023-08-17T14:41:09;5.00;;;4.70;;
26594;SDS011;14238;49.496;8.154;2023-08-17T14:43:34;5.53;;;5.00;;
26594;SDS011;14238;49.496;8.154;2023-08-17T14:46:00;5.20;;;4.90;;
26594;SDS011;14238;49.496;8.154;2023-08-17T14:48:26;4.77;;;4.57;;
26594;SDS011;14238;49.496;8.154;2023-08-17T14:50:51;4.50;;;4.30;;
26594;SDS011;14238;49.496;8.154;2023-08-17T14:53:17;4.80;;;4.50;;
26594;SDS011;14238;49.496;8.154;2023-08-17T14:55:42;4.77;;;4.33;;
26594;SDS011;14238;49.496;8.154;2023-08-17T14:58:08;5.50;;;5.20;;